sensor_id;sensor_type;location;lat;lon;timestamp;P1;durP1;ratioP1;P2;durP2;ratioP2
77507;SDS011;66618;42.666;23.360;2023-02-15T00:01:10;40.72;;;18.27;;
77507;SDS011;66618;42.666;23.360;2023-02-15T00:03:37;39.03;;;16.95;;
77507;SDS011;66618;42.666;23.360;2023-02-15T00:06:03;43.67;;;16.95;;
77507;SDS011;66618;42.666;23.360;2023-02-15T00:08:29;46.65;;;19.88;;
77507;SDS011;66618;42.666;23.360;2023-02-15T00:11:08;40.08;;;18.30;;
77507;SDS011;66618;42.666;23.360;2023-02-15T00:13:37;35.47;;;16.80;;
77507;SDS011;66618;42.666;23.360;2023-02-15T00:16:06;42.03;;;17.38;;
77507;SDS011;66618;42.666;23.360;2023-02-15T00:18:35;26.58;;;12.95;;
77507;SDS011;66618;42.666;23.360;2023-02-15T00:21:05;39.67;;;18.05;;
77507;SDS011;66618;42.666;23.360;2023-02-15T00:23:32;41.53;;;19.50;;
77507;SDS011;66618;42.666;23.360;2023-02-15T00:26:04;36.08;;;16.95;;
77507;SDS011;66618;42.666;23.360;2023-02-15T00:28:35;37.45;;;16.63;;
77507;SDS011;66618;42.666;23.360;2023-02-15T00:31:07;41.20;;;18.00;;
77507;SDS011;66618;42.666;23.360;2023-02-15T00:33:34;42.13;;;17.15;;
77507;SDS011;66618;42.666;23.360;2023-02-15T00:36:01;45.35;;;19.35;;
77507;SDS011;66618;42.666;23.360;2023-02-15T00:38:27;38.45;;;17.25;;
77507;SDS011;66618;42.666;23.360;2023-02-15T00:40:54;44.80;;;17.67;;
77507;SDS011;66618;42.666;23.360;2023-02-15T00:43:20;39.88;;;17.23;;
77507;SDS011;66618;42.666;23.360;2023-02-15T00:45:45;42.72;;;18.42;;
77507;SDS011;66618;42.666;23.360;2023-02-15T00:48:11;39.55;;;18.38;;
77507;SDS011;66618;42.666;23.360;2023-02-15T00:50:36;37.75;;;17.65;;
77507;SDS011;66618;42.666;23.360;2023-02-15T00:53:02;40.55;;;18.33;;
77507;SDS011;66618;42.666;23.360;2023-02-15T00:55:27;38.60;;;17.15;;
77507;SDS011;66618;42.666;23.360;2023-02-15T00:57:52;38.70;;;17.67;;
77507;SDS011;66618;42.666;23.360;2023-02-15T01:00:18;38.05;;;16.73;;
77507;SDS011;66618;42.666;23.360;2023-02-15T01:02:43;39.60;;;17.23;;
77507;SDS011;66618;42.666;23.360;2023-02-15T01:05:09;37.60;;;18.25;;
77507;SDS011;66618;42.666;23.360;2023-02-15T01:07:34;39.10;;;16.88;;
77507;SDS011;66618;42.666;23.360;2023-02-15T01:09:59;39.30;;;17.83;;
77507;SDS011;66618;42.666;23.360;2023-02-15T01:12:25;37.95;;;17.48;;
77507;SDS011;66618;42.666;23.360;2023-02-15T01:14:50;39.40;;;16.23;;
77507;SDS011;66618;42.666;23.360;2023-02-15T01:17:15;35.60;;;15.77;;
77507;SDS011;66618;42.666;23.360;2023-02-15T01:19:41;40.38;;;18.02;;
77507;SDS011;66618;42.666;23.360;2023-02-15T01:22:06;35.70;;;15.95;;
77507;SDS011;66618;42.666;23.360;2023-02-15T01:24:31;38.65;;;17.60;;
77507;SDS011;66618;42.666;23.360;2023-02-15T01:26:57;40.17;;;18.10;;
77507;SDS011;66618;42.666;23.360;2023-02-15T01:29:22;38.15;;;17.38;;
77507;SDS011;66618;42.666;23.360;2023-02-15T01:31:48;41.20;;;18.90;;
77507;SDS011;66618;42.666;23.360;2023-02-15T01:34:13;36.60;;;16.70;;
77507;SDS011;66618;42.666;23.360;2023-02-15T01:36:38;36.92;;;15.90;;
77507;SDS011;66618;42.666;23.360;2023-02-15T01:39:04;38.00;;;16.88;;
77507;SDS011;66618;42.666;23.360;2023-02-15T01:41:29;36.42;;;15.60;;
77507;SDS011;66618;42.666;23.360;2023-02-15T01:43:59;36.83;;;17.02;;
77507;SDS011;66618;42.666;23.360;2023-02-15T01:46:27;39.45;;;17.27;;
77507;SDS011;66618;42.666;23.360;2023-02-15T01:49:11;37.67;;;16.65;;
77507;SDS011;66618;42.666;23.360;2023-02-15T01:51:38;35.47;;;17.67;;
77507;SDS011;66618;42.666;23.360;2023-02-15T01:56:45;36.30;;;15.35;;
77507;SDS011;66618;42.666;23.360;2023-02-15T01:59:13;38.90;;;17.38;;
77507;SDS011;66618;42.666;23.360;2023-02-15T02:01:41;36.42;;;16.20;;
77507;SDS011;66618;42.666;23.360;2023-02-15T02:04:15;37.55;;;16.63;;
77507;SDS011;66618;42.666;23.360;2023-02-15T02:06:42;40.58;;;16.92;;
77507;SDS011;66618;42.666;23.360;2023-02-15T02:09:09;40.42;;;18.90;;
77507;SDS011;66618;42.666;23.360;2023-02-15T02:11:35;36.67;;;16.42;;
77507;SDS011;66618;42.666;23.360;2023-02-15T02:14:00;37.53;;;16.83;;
77507;SDS011;66618;42.666;23.360;2023-02-15T02:16:40;36.13;;;16.23;;
77507;SDS011;66618;42.666;23.360;2023-02-15T02:19:32;36.65;;;16.80;;
77507;SDS011;66618;42.666;23.360;2023-02-15T02:22:25;35.65;;;16.17;;
77507;SDS011;66618;42.666;23.360;2023-02-15T02:33:34;38.53;;;17.45;;
77507;SDS011;66618;42.666;23.360;2023-02-15T02:45:00;39.47;;;16.73;;
77507;SDS011;66618;42.666;23.360;2023-02-15T02:47:30;34.90;;;15.82;;
77507;SDS011;66618;42.666;23.360;2023-02-15T02:52:46;37.22;;;16.15;;
77507;SDS011;66618;42.666;23.360;2023-02-15T02:55:16;33.13;;;14.85;;
77507;SDS011;66618;42.666;23.360;2023-02-15T02:58:02;31.20;;;15.02;;
77507;SDS011;66618;42.666;23.360;2023-02-15T03:00:38;34.55;;;15.32;;
77507;SDS011;66618;42.666;23.360;2023-02-15T03:03:08;33.33;;;14.25;;
77507;SDS011;66618;42.666;23.360;2023-02-15T03:05:41;35.77;;;16.00;;
77507;SDS011;66618;42.666;23.360;2023-02-15T03:08:08;35.17;;;15.48;;
77507;SDS011;66618;42.666;23.360;2023-02-15T03:10:35;30.67;;;14.70;;
77507;SDS011;66618;42.666;23.360;2023-02-15T03:13:02;34.53;;;15.85;;
77507;SDS011;66618;42.666;23.360;2023-02-15T03:15:31;32.13;;;15.82;;
77507;SDS011;66618;42.666;23.360;2023-02-15T03:18:20;35.05;;;16.10;;
77507;SDS011;66618;42.666;23.360;2023-02-15T03:20:48;35.65;;;16.88;;
77507;SDS011;66618;42.666;23.360;2023-02-15T03:23:15;31.20;;;13.50;;
77507;SDS011;66618;42.666;23.360;2023-02-15T03:25:43;33.95;;;15.10;;
77507;SDS011;66618;42.666;23.360;2023-02-15T03:28:17;37.88;;;16.10;;
77507;SDS011;66618;42.666;23.360;2023-02-15T03:30:45;32.50;;;16.50;;
77507;SDS011;66618;42.666;23.360;2023-02-15T03:33:11;34.17;;;15.23;;
77507;SDS011;66618;42.666;23.360;2023-02-15T03:38:25;31.63;;;14.63;;
77507;SDS011;66618;42.666;23.360;2023-02-15T03:40:54;30.23;;;15.27;;
77507;SDS011;66618;42.666;23.360;2023-02-15T03:43:42;34.05;;;16.35;;
77507;SDS011;66618;42.666;23.360;2023-02-15T03:49:20;31.30;;;15.85;;
77507;SDS011;66618;42.666;23.360;2023-02-15T03:51:28;29.83;;;14.30;;
77507;SDS011;66618;42.666;23.360;2023-02-15T03:57:29;30.77;;;13.40;;
77507;SDS011;66618;42.666;23.360;2023-02-15T04:00:22;31.05;;;15.02;;
77507;SDS011;66618;42.666;23.360;2023-02-15T04:05:47;34.35;;;14.27;;
77507;SDS011;66618;42.666;23.360;2023-02-15T04:08:13;34.60;;;14.95;;
77507;SDS011;66618;42.666;23.360;2023-02-15T04:10:38;28.70;;;13.88;;
77507;SDS011;66618;42.666;23.360;2023-02-15T04:13:24;32.20;;;14.60;;
77507;SDS011;66618;42.666;23.360;2023-02-15T04:15:55;31.08;;;14.70;;
77507;SDS011;66618;42.666;23.360;2023-02-15T04:18:33;31.08;;;14.43;;
77507;SDS011;66618;42.666;23.360;2023-02-15T04:21:19;32.00;;;15.07;;
77507;SDS011;66618;42.666;23.360;2023-02-15T04:24:05;33.45;;;14.77;;
77507;SDS011;66618;42.666;23.360;2023-02-15T04:26:49;34.30;;;13.45;;
77507;SDS011;66618;42.666;23.360;2023-02-15T04:29:17;31.27;;;14.48;;
77507;SDS011;66618;42.666;23.360;2023-02-15T04:31:43;29.25;;;14.43;;
77507;SDS011;66618;42.666;23.360;2023-02-15T04:34:09;31.15;;;14.85;;
77507;SDS011;66618;42.666;23.360;2023-02-15T04:36:35;31.92;;;15.30;;
77507;SDS011;66618;42.666;23.360;2023-02-15T04:39:01;32.50;;;14.75;;
77507;SDS011;66618;42.666;23.360;2023-02-15T04:41:27;34.58;;;16.27;;
77507;SDS011;66618;42.666;23.360;2023-02-15T04:43:53;32.15;;;15.25;;
77507;SDS011;66618;42.666;23.360;2023-02-15T04:46:18;34.67;;;14.60;;
77507;SDS011;66618;42.666;23.360;2023-02-15T04:48:43;35.83;;;15.40;;
77507;SDS011;66618;42.666;23.360;2023-02-15T04:51:09;32.38;;;15.07;;
77507;SDS011;66618;42.666;23.360;2023-02-15T04:53:34;30.80;;;15.02;;
77507;SDS011;66618;42.666;23.360;2023-02-15T04:56:00;30.92;;;14.32;;
77507;SDS011;66618;42.666;23.360;2023-02-15T04:58:26;32.85;;;15.82;;
77507;SDS011;66618;42.666;23.360;2023-02-15T05:00:54;34.80;;;14.77;;
77507;SDS011;66618;42.666;23.360;2023-02-15T05:03:20;31.48;;;15.35;;
77507;SDS011;66618;42.666;23.360;2023-02-15T05:05:46;32.38;;;14.23;;
77507;SDS011;66618;42.666;23.360;2023-02-15T05:08:12;31.27;;;14.63;;
77507;SDS011;66618;42.666;23.360;2023-02-15T05:10:37;33.65;;;15.48;;
77507;SDS011;66618;42.666;23.360;2023-02-15T05:13:03;29.77;;;14.00;;
77507;SDS011;66618;42.666;23.360;2023-02-15T05:15:28;33.40;;;14.18;;
77507;SDS011;66618;42.666;23.360;2023-02-15T05:17:53;30.30;;;15.00;;
77507;SDS011;66618;42.666;23.360;2023-02-15T05:20:19;31.88;;;14.57;;
77507;SDS011;66618;42.666;23.360;2023-02-15T05:22:44;31.00;;;14.68;;
77507;SDS011;66618;42.666;23.360;2023-02-15T05:25:09;33.13;;;15.07;;
77507;SDS011;66618;42.666;23.360;2023-02-15T05:27:53;30.38;;;14.85;;
77507;SDS011;66618;42.666;23.360;2023-02-15T05:30:37;28.25;;;13.82;;
77507;SDS011;66618;42.666;23.360;2023-02-15T05:33:04;31.83;;;15.52;;
77507;SDS011;66618;42.666;23.360;2023-02-15T05:35:31;31.77;;;14.98;;
77507;SDS011;66618;42.666;23.360;2023-02-15T05:37:57;30.77;;;14.50;;
77507;SDS011;66618;42.666;23.360;2023-02-15T05:40:22;30.20;;;14.05;;
77507;SDS011;66618;42.666;23.360;2023-02-15T05:42:47;31.67;;;14.60;;
77507;SDS011;66618;42.666;23.360;2023-02-15T05:45:13;28.33;;;13.65;;
77507;SDS011;66618;42.666;23.360;2023-02-15T05:47:38;29.63;;;14.88;;
77507;SDS011;66618;42.666;23.360;2023-02-15T05:50:04;27.75;;;12.50;;
77507;SDS011;66618;42.666;23.360;2023-02-15T05:52:30;29.27;;;14.57;;
77507;SDS011;66618;42.666;23.360;2023-02-15T05:54:55;32.00;;;14.93;;
77507;SDS011;66618;42.666;23.360;2023-02-15T05:57:20;28.00;;;13.68;;
77507;SDS011;66618;42.666;23.360;2023-02-15T05:59:46;32.08;;;14.73;;
77507;SDS011;66618;42.666;23.360;2023-02-15T06:02:11;30.15;;;14.68;;
77507;SDS011;66618;42.666;23.360;2023-02-15T06:04:38;32.85;;;14.70;;
77507;SDS011;66618;42.666;23.360;2023-02-15T06:07:03;30.98;;;13.45;;
77507;SDS011;66618;42.666;23.360;2023-02-15T06:09:28;31.48;;;14.55;;
77507;SDS011;66618;42.666;23.360;2023-02-15T06:11:54;31.60;;;15.63;;
77507;SDS011;66618;42.666;23.360;2023-02-15T06:14:19;28.90;;;13.93;;
77507;SDS011;66618;42.666;23.360;2023-02-15T06:16:44;27.40;;;13.00;;
77507;SDS011;66618;42.666;23.360;2023-02-15T06:19:10;33.03;;;14.15;;
77507;SDS011;66618;42.666;23.360;2023-02-15T06:21:35;25.92;;;13.38;;
77507;SDS011;66618;42.666;23.360;2023-02-15T06:24:01;27.23;;;13.40;;
77507;SDS011;66618;42.666;23.360;2023-02-15T06:26:26;27.40;;;13.27;;
77507;SDS011;66618;42.666;23.360;2023-02-15T06:28:51;29.13;;;14.02;;
77507;SDS011;66618;42.666;23.360;2023-02-15T06:31:17;31.95;;;13.73;;
77507;SDS011;66618;42.666;23.360;2023-02-15T06:33:42;27.00;;;12.50;;
77507;SDS011;66618;42.666;23.360;2023-02-15T06:36:07;29.77;;;15.00;;
77507;SDS011;66618;42.666;23.360;2023-02-15T06:38:33;26.90;;;13.60;;
77507;SDS011;66618;42.666;23.360;2023-02-15T06:40:59;28.30;;;13.82;;
77507;SDS011;66618;42.666;23.360;2023-02-15T06:43:24;27.38;;;13.60;;
77507;SDS011;66618;42.666;23.360;2023-02-15T06:45:49;26.63;;;12.75;;
77507;SDS011;66618;42.666;23.360;2023-02-15T06:48:15;27.63;;;12.82;;
77507;SDS011;66618;42.666;23.360;2023-02-15T06:50:40;32.05;;;14.02;;
77507;SDS011;66618;42.666;23.360;2023-02-15T06:53:05;30.85;;;14.00;;
77507;SDS011;66618;42.666;23.360;2023-02-15T06:55:31;25.20;;;12.57;;
77507;SDS011;66618;42.666;23.360;2023-02-15T06:57:56;30.40;;;14.35;;
77507;SDS011;66618;42.666;23.360;2023-02-15T07:00:22;25.17;;;12.15;;
77507;SDS011;66618;42.666;23.360;2023-02-15T07:02:50;27.85;;;13.15;;
77507;SDS011;66618;42.666;23.360;2023-02-15T07:05:20;23.08;;;11.90;;
77507;SDS011;66618;42.666;23.360;2023-02-15T07:07:45;26.85;;;12.88;;
77507;SDS011;66618;42.666;23.360;2023-02-15T07:10:11;15.65;;;7.55;;
77507;SDS011;66618;42.666;23.360;2023-02-15T07:12:36;24.90;;;12.82;;
77507;SDS011;66618;42.666;23.360;2023-02-15T07:15:09;25.30;;;11.25;;
77507;SDS011;66618;42.666;23.360;2023-02-15T07:17:35;22.73;;;11.52;;
77507;SDS011;66618;42.666;23.360;2023-02-15T07:20:08;37.00;;;11.82;;
77507;SDS011;66618;42.666;23.360;2023-02-15T07:22:36;23.40;;;11.13;;
77507;SDS011;66618;42.666;23.360;2023-02-15T07:25:05;26.20;;;12.18;;
77507;SDS011;66618;42.666;23.360;2023-02-15T07:27:32;24.63;;;12.07;;
77507;SDS011;66618;42.666;23.360;2023-02-15T07:29:58;29.02;;;11.98;;
77507;SDS011;66618;42.666;23.360;2023-02-15T07:32:26;24.45;;;12.80;;
77507;SDS011;66618;42.666;23.360;2023-02-15T07:34:53;23.92;;;12.13;;
77507;SDS011;66618;42.666;23.360;2023-02-15T07:37:18;25.25;;;12.65;;
77507;SDS011;66618;42.666;23.360;2023-02-15T07:39:44;25.33;;;12.70;;
77507;SDS011;66618;42.666;23.360;2023-02-15T07:42:09;26.00;;;12.48;;
77507;SDS011;66618;42.666;23.360;2023-02-15T07:44:34;25.15;;;12.75;;
77507;SDS011;66618;42.666;23.360;2023-02-15T07:47:00;21.35;;;11.70;;
77507;SDS011;66618;42.666;23.360;2023-02-15T07:49:25;21.33;;;11.25;;
77507;SDS011;66618;42.666;23.360;2023-02-15T07:51:50;25.45;;;12.23;;
77507;SDS011;66618;42.666;23.360;2023-02-15T07:54:16;23.33;;;11.93;;
77507;SDS011;66618;42.666;23.360;2023-02-15T07:56:41;21.33;;;11.55;;
77507;SDS011;66618;42.666;23.360;2023-02-15T07:59:06;24.00;;;12.07;;
77507;SDS011;66618;42.666;23.360;2023-02-15T08:01:36;22.67;;;11.73;;
77507;SDS011;66618;42.666;23.360;2023-02-15T08:04:03;25.58;;;12.77;;
77507;SDS011;66618;42.666;23.360;2023-02-15T08:06:31;28.98;;;13.40;;
77507;SDS011;66618;42.666;23.360;2023-02-15T08:08:58;22.20;;;11.32;;
77507;SDS011;66618;42.666;23.360;2023-02-15T08:11:27;22.27;;;10.93;;
77507;SDS011;66618;42.666;23.360;2023-02-15T08:19:13;19.83;;;10.55;;
77507;SDS011;66618;42.666;23.360;2023-02-15T08:24:28;22.38;;;11.35;;
77507;SDS011;66618;42.666;23.360;2023-02-15T08:26:55;22.27;;;11.05;;
77507;SDS011;66618;42.666;23.360;2023-02-15T08:29:22;22.38;;;12.45;;
77507;SDS011;66618;42.666;23.360;2023-02-15T08:31:48;26.40;;;11.90;;
77507;SDS011;66618;42.666;23.360;2023-02-15T08:34:16;21.55;;;11.15;;
77507;SDS011;66618;42.666;23.360;2023-02-15T08:36:42;23.08;;;11.27;;
77507;SDS011;66618;42.666;23.360;2023-02-15T08:39:10;22.77;;;11.00;;
77507;SDS011;66618;42.666;23.360;2023-02-15T08:41:36;25.35;;;11.43;;
77507;SDS011;66618;42.666;23.360;2023-02-15T08:44:04;24.45;;;12.63;;
77507;SDS011;66618;42.666;23.360;2023-02-15T08:46:32;21.08;;;11.15;;
77507;SDS011;66618;42.666;23.360;2023-02-15T08:48:58;23.25;;;12.32;;
77507;SDS011;66618;42.666;23.360;2023-02-15T08:51:25;23.63;;;12.38;;
77507;SDS011;66618;42.666;23.360;2023-02-15T08:53:55;22.77;;;11.48;;
77507;SDS011;66618;42.666;23.360;2023-02-15T08:56:22;21.98;;;11.25;;
77507;SDS011;66618;42.666;23.360;2023-02-15T08:58:49;20.77;;;11.98;;
77507;SDS011;66618;42.666;23.360;2023-02-15T09:01:22;25.77;;;11.60;;
77507;SDS011;66618;42.666;23.360;2023-02-15T09:03:49;26.67;;;12.13;;
77507;SDS011;66618;42.666;23.360;2023-02-15T09:06:18;20.95;;;10.63;;
77507;SDS011;66618;42.666;23.360;2023-02-15T09:08:44;22.50;;;11.40;;
77507;SDS011;66618;42.666;23.360;2023-02-15T09:11:13;22.75;;;11.52;;
77507;SDS011;66618;42.666;23.360;2023-02-15T09:13:51;19.48;;;11.35;;
77507;SDS011;66618;42.666;23.360;2023-02-15T09:16:19;20.15;;;11.07;;
77507;SDS011;66618;42.666;23.360;2023-02-15T09:18:45;20.98;;;10.60;;
77507;SDS011;66618;42.666;23.360;2023-02-15T09:21:18;17.80;;;9.82;;
77507;SDS011;66618;42.666;23.360;2023-02-15T09:23:47;18.75;;;10.70;;
77507;SDS011;66618;42.666;23.360;2023-02-15T09:26:15;19.15;;;10.77;;
77507;SDS011;66618;42.666;23.360;2023-02-15T09:28:41;20.88;;;11.13;;
77507;SDS011;66618;42.666;23.360;2023-02-15T09:33:35;24.48;;;11.80;;
77507;SDS011;66618;42.666;23.360;2023-02-15T09:36:01;22.83;;;11.77;;
77507;SDS011;66618;42.666;23.360;2023-02-15T09:38:28;22.52;;;12.35;;
77507;SDS011;66618;42.666;23.360;2023-02-15T09:41:04;19.50;;;11.20;;
77507;SDS011;66618;42.666;23.360;2023-02-15T09:48:55;20.92;;;11.45;;
77507;SDS011;66618;42.666;23.360;2023-02-15T09:51:37;22.30;;;10.30;;
77507;SDS011;66618;42.666;23.360;2023-02-15T09:59:19;18.52;;;11.23;;
77507;SDS011;66618;42.666;23.360;2023-02-15T10:04:18;19.77;;;11.77;;
77507;SDS011;66618;42.666;23.360;2023-02-15T10:23:26;21.55;;;10.55;;
77507;SDS011;66618;42.666;23.360;2023-02-15T10:26:04;24.83;;;11.10;;
77507;SDS011;66618;42.666;23.360;2023-02-15T10:28:51;21.42;;;11.65;;
77507;SDS011;66618;42.666;23.360;2023-02-15T10:31:30;23.15;;;11.93;;
77507;SDS011;66618;42.666;23.360;2023-02-15T10:39:25;24.17;;;12.27;;
77507;SDS011;66618;42.666;23.360;2023-02-15T10:45:03;22.50;;;11.35;;
77507;SDS011;66618;42.666;23.360;2023-02-15T10:58:03;22.92;;;12.40;;
77507;SDS011;66618;42.666;23.360;2023-02-15T11:03:40;28.65;;;12.98;;
77507;SDS011;66618;42.666;23.360;2023-02-15T11:06:12;23.30;;;12.05;;
77507;SDS011;66618;42.666;23.360;2023-02-15T11:08:40;27.30;;;13.45;;
77507;SDS011;66618;42.666;23.360;2023-02-15T11:11:14;21.65;;;12.15;;
77507;SDS011;66618;42.666;23.360;2023-02-15T11:13:45;21.48;;;12.13;;
77507;SDS011;66618;42.666;23.360;2023-02-15T11:16:15;23.67;;;13.02;;
77507;SDS011;66618;42.666;23.360;2023-02-15T11:21:46;26.48;;;13.02;;
77507;SDS011;66618;42.666;23.360;2023-02-15T11:24:16;23.60;;;12.88;;
77507;SDS011;66618;42.666;23.360;2023-02-15T11:26:50;26.25;;;13.27;;
77507;SDS011;66618;42.666;23.360;2023-02-15T11:29:59;25.10;;;13.48;;
77507;SDS011;66618;42.666;23.360;2023-02-15T11:32:28;24.75;;;12.15;;
77507;SDS011;66618;42.666;23.360;2023-02-15T11:35:01;26.30;;;13.85;;
77507;SDS011;66618;42.666;23.360;2023-02-15T11:40:12;26.27;;;13.82;;
77507;SDS011;66618;42.666;23.360;2023-02-15T11:42:43;21.17;;;11.77;;
77507;SDS011;66618;42.666;23.360;2023-02-15T11:45:42;26.05;;;12.57;;
77507;SDS011;66618;42.666;23.360;2023-02-15T11:48:01;25.98;;;12.38;;
77507;SDS011;66618;42.666;23.360;2023-02-15T11:50:33;22.70;;;11.70;;
77507;SDS011;66618;42.666;23.360;2023-02-15T11:53:00;25.38;;;13.20;;
77507;SDS011;66618;42.666;23.360;2023-02-15T11:55:27;22.42;;;12.00;;
77507;SDS011;66618;42.666;23.360;2023-02-15T12:01:52;25.02;;;12.60;;
77507;SDS011;66618;42.666;23.360;2023-02-15T12:04:06;25.77;;;12.50;;
77507;SDS011;66618;42.666;23.360;2023-02-15T12:06:41;25.75;;;12.90;;
77507;SDS011;66618;42.666;23.360;2023-02-15T12:17:21;27.17;;;12.73;;
77507;SDS011;66618;42.666;23.360;2023-02-15T12:19:48;23.20;;;12.02;;
77507;SDS011;66618;42.666;23.360;2023-02-15T12:22:19;23.00;;;11.77;;
77507;SDS011;66618;42.666;23.360;2023-02-15T12:24:45;22.55;;;12.00;;
77507;SDS011;66618;42.666;23.360;2023-02-15T12:27:15;22.73;;;12.25;;
77507;SDS011;66618;42.666;23.360;2023-02-15T12:29:42;20.77;;;11.52;;
77507;SDS011;66618;42.666;23.360;2023-02-15T12:32:33;26.83;;;12.70;;
77507;SDS011;66618;42.666;23.360;2023-02-15T12:35:00;30.15;;;13.32;;
77507;SDS011;66618;42.666;23.360;2023-02-15T12:37:32;27.60;;;14.20;;
77507;SDS011;66618;42.666;23.360;2023-02-15T12:39:59;27.10;;;12.93;;
77507;SDS011;66618;42.666;23.360;2023-02-15T12:42:26;25.08;;;12.70;;
77507;SDS011;66618;42.666;23.360;2023-02-15T12:45:01;24.48;;;13.10;;
77507;SDS011;66618;42.666;23.360;2023-02-15T12:47:29;28.40;;;15.18;;
77507;SDS011;66618;42.666;23.360;2023-02-15T12:50:15;27.90;;;12.60;;
77507;SDS011;66618;42.666;23.360;2023-02-15T12:52:48;25.85;;;13.38;;
77507;SDS011;66618;42.666;23.360;2023-02-15T12:55:20;26.20;;;13.70;;
77507;SDS011;66618;42.666;23.360;2023-02-15T12:57:47;25.30;;;14.15;;
77507;SDS011;66618;42.666;23.360;2023-02-15T13:02:44;24.50;;;13.15;;
77507;SDS011;66618;42.666;23.360;2023-02-15T13:05:30;25.17;;;13.63;;
77507;SDS011;66618;42.666;23.360;2023-02-15T13:07:58;25.63;;;12.50;;
77507;SDS011;66618;42.666;23.360;2023-02-15T13:10:27;25.30;;;11.70;;
77507;SDS011;66618;42.666;23.360;2023-02-15T13:12:54;25.35;;;13.38;;
77507;SDS011;66618;42.666;23.360;2023-02-15T13:15:44;25.88;;;12.85;;
77507;SDS011;66618;42.666;23.360;2023-02-15T13:18:29;24.25;;;13.30;;
77507;SDS011;66618;42.666;23.360;2023-02-15T13:20:57;23.00;;;12.50;;
77507;SDS011;66618;42.666;23.360;2023-02-15T13:23:26;22.85;;;13.02;;
77507;SDS011;66618;42.666;23.360;2023-02-15T13:25:53;22.73;;;12.52;;
77507;SDS011;66618;42.666;23.360;2023-02-15T13:28:25;23.17;;;13.02;;
77507;SDS011;66618;42.666;23.360;2023-02-15T13:30:56;25.75;;;12.90;;
77507;SDS011;66618;42.666;23.360;2023-02-15T13:33:26;25.73;;;13.60;;
77507;SDS011;66618;42.666;23.360;2023-02-15T13:38:57;24.83;;;13.50;;
77507;SDS011;66618;42.666;23.360;2023-02-15T13:47:05;25.45;;;13.85;;
77507;SDS011;66618;42.666;23.360;2023-02-15T13:50:07;27.80;;;14.18;;
77507;SDS011;66618;42.666;23.360;2023-02-15T13:52:56;20.33;;;11.35;;
77507;SDS011;66618;42.666;23.360;2023-02-15T14:03:51;22.60;;;11.40;;
77507;SDS011;66618;42.666;23.360;2023-02-15T14:11:44;23.80;;;11.63;;
77507;SDS011;66618;42.666;23.360;2023-02-15T14:19:16;25.42;;;14.30;;
77507;SDS011;66618;42.666;23.360;2023-02-15T14:21:55;25.05;;;13.18;;
77507;SDS011;66618;42.666;23.360;2023-02-15T14:24:42;26.95;;;14.52;;
77507;SDS011;66618;42.666;23.360;2023-02-15T14:27:13;23.42;;;12.95;;
77507;SDS011;66618;42.666;23.360;2023-02-15T14:32:25;26.75;;;13.23;;
77507;SDS011;66618;42.666;23.360;2023-02-15T14:34:55;27.02;;;13.73;;
77507;SDS011;66618;42.666;23.360;2023-02-15T14:37:26;22.95;;;13.23;;
77507;SDS011;66618;42.666;23.360;2023-02-15T14:46:09;24.75;;;13.10;;
77507;SDS011;66618;42.666;23.360;2023-02-15T14:49:06;28.70;;;14.63;;
77507;SDS011;66618;42.666;23.360;2023-02-15T14:56:43;26.15;;;13.85;;
77507;SDS011;66618;42.666;23.360;2023-02-15T14:59:19;29.08;;;14.27;;
77507;SDS011;66618;42.666;23.360;2023-02-15T15:01:58;27.13;;;15.25;;
77507;SDS011;66618;42.666;23.360;2023-02-15T15:04:29;27.55;;;14.25;;
77507;SDS011;66618;42.666;23.360;2023-02-15T15:09:40;28.75;;;14.55;;
77507;SDS011;66618;42.666;23.360;2023-02-15T15:14:47;27.67;;;13.88;;
77507;SDS011;66618;42.666;23.360;2023-02-15T15:17:59;27.95;;;14.77;;
77507;SDS011;66618;42.666;23.360;2023-02-15T15:22:38;30.40;;;15.38;;
77507;SDS011;66618;42.666;23.360;2023-02-15T15:27:58;26.63;;;13.40;;
77507;SDS011;66618;42.666;23.360;2023-02-15T15:41:15;30.65;;;14.43;;
77507;SDS011;66618;42.666;23.360;2023-02-15T15:46:47;31.80;;;16.08;;
77507;SDS011;66618;42.666;23.360;2023-02-15T15:49:16;30.30;;;14.88;;
77507;SDS011;66618;42.666;23.360;2023-02-15T15:51:43;30.92;;;14.77;;
77507;SDS011;66618;42.666;23.360;2023-02-15T15:54:19;32.75;;;15.60;;
77507;SDS011;66618;42.666;23.360;2023-02-15T15:56:47;29.95;;;14.27;;
77507;SDS011;66618;42.666;23.360;2023-02-15T15:59:19;30.52;;;14.48;;
77507;SDS011;66618;42.666;23.360;2023-02-15T16:01:48;30.67;;;14.90;;
77507;SDS011;66618;42.666;23.360;2023-02-15T16:04:28;29.83;;;14.32;;
77507;SDS011;66618;42.666;23.360;2023-02-15T16:06:56;33.45;;;15.55;;
77507;SDS011;66618;42.666;23.360;2023-02-15T16:09:26;32.63;;;16.10;;
77507;SDS011;66618;42.666;23.360;2023-02-15T16:11:52;29.42;;;15.65;;
77507;SDS011;66618;42.666;23.360;2023-02-15T16:14:26;32.28;;;15.18;;
77507;SDS011;66618;42.666;23.360;2023-02-15T16:16:59;31.50;;;14.75;;
77507;SDS011;66618;42.666;23.360;2023-02-15T16:19:27;41.63;;;17.15;;
77507;SDS011;66618;42.666;23.360;2023-02-15T16:29:44;36.28;;;16.65;;
77507;SDS011;66618;42.666;23.360;2023-02-15T16:32:19;36.72;;;16.40;;
77507;SDS011;66618;42.666;23.360;2023-02-15T16:34:53;34.05;;;16.38;;
77507;SDS011;66618;42.666;23.360;2023-02-15T16:37:21;37.13;;;17.17;;
77507;SDS011;66618;42.666;23.360;2023-02-15T16:39:50;32.90;;;16.45;;
77507;SDS011;66618;42.666;23.360;2023-02-15T16:42:16;39.53;;;16.77;;
77507;SDS011;66618;42.666;23.360;2023-02-15T16:44:43;34.38;;;16.00;;
77507;SDS011;66618;42.666;23.360;2023-02-15T16:47:13;32.25;;;15.55;;
77507;SDS011;66618;42.666;23.360;2023-02-15T16:49:43;35.55;;;16.73;;
77507;SDS011;66618;42.666;23.360;2023-02-15T16:52:12;34.40;;;16.25;;
77507;SDS011;66618;42.666;23.360;2023-02-15T16:54:41;38.58;;;16.35;;
77507;SDS011;66618;42.666;23.360;2023-02-15T16:57:14;35.67;;;16.48;;
77507;SDS011;66618;42.666;23.360;2023-02-15T16:59:41;35.30;;;16.42;;
77507;SDS011;66618;42.666;23.360;2023-02-15T17:02:12;32.03;;;15.75;;
77507;SDS011;66618;42.666;23.360;2023-02-15T17:04:42;35.25;;;16.38;;
77507;SDS011;66618;42.666;23.360;2023-02-15T17:09:51;35.08;;;16.55;;
77507;SDS011;66618;42.666;23.360;2023-02-15T17:15:33;30.10;;;15.02;;
77507;SDS011;66618;42.666;23.360;2023-02-15T17:20:26;36.78;;;16.02;;
77507;SDS011;66618;42.666;23.360;2023-02-15T17:22:52;32.28;;;16.02;;
77507;SDS011;66618;42.666;23.360;2023-02-15T17:25:19;31.27;;;15.40;;
77507;SDS011;66618;42.666;23.360;2023-02-15T17:27:50;33.78;;;16.20;;
77507;SDS011;66618;42.666;23.360;2023-02-15T17:30:21;32.50;;;15.40;;
77507;SDS011;66618;42.666;23.360;2023-02-15T17:32:53;33.75;;;14.70;;
77507;SDS011;66618;42.666;23.360;2023-02-15T17:35:21;36.75;;;15.80;;
77507;SDS011;66618;42.666;23.360;2023-02-15T17:38:00;31.33;;;14.88;;
77507;SDS011;66618;42.666;23.360;2023-02-15T17:40:30;33.38;;;16.60;;
77507;SDS011;66618;42.666;23.360;2023-02-15T17:42:57;35.95;;;17.25;;